FW1084 Weather Reports


Display with metric or nautical units.
time (UTC)temp
F
wind
direction
speed
MPH
gust
MPH
rain 1hr
in
rain 24hr
in
rain mn
in
humidity
%
barometer
mb
20190322123112 41 130 6.0 0.0 0.00 0.00 0.00 74 1007.6
20190322121613 41 142 6.0 0.0 0.00 0.00 0.00 71 1007.5
20190322120056 43 106 7.0 0.0 0.00 0.00 0.00 71 1007.5
20190322114532 43 127 6.0 0.0 0.00 0.00 0.00 70 1007.2
20190322113023 44 121 7.0 0.0 0.00 0.00 0.00 70 1007.1
20190322111512 42 121 6.0 0.0 0.00 0.00 0.00 72 1007.1
20190322110155 42 126 6.0 0.0 0.00 0.00 0.00 69 1007.0
20190322104721 43 109 7.0 0.0 0.00 0.00 0.00 69 1007.2
20190322103149 43 120 7.0 0.0 0.00 0.00 0.00 69 1007.3
20190322101611 43 123 5.0 0.0 0.00 0.00 0.00 68 1007.3
20190322100055 44 120 5.0 0.0 0.00 0.00 0.00 66 1007.4
20190322094520 44 113 7.0 0.0 0.00 0.00 0.00 66 1007.4
20190322093158 44 135 5.0 0.0 0.00 0.00 0.00 67 1007.7
20190322091632 43 116 6.0 0.0 0.00 0.00 0.00 69 1007.8
20190322090116 42 115 6.0 0.0 0.00 0.00 0.00 72 1007.9
20190322084633 41 145 4.0 0.0 0.00 0.00 0.00 73 1008.0
20190322083120 43 161 5.0 0.0 0.00 0.00 0.00 69 1007.6
20190322081558 45 123 6.0 0.0 0.00 0.00 0.00 67 1007.8
20190322080101 45 113 6.0 0.0 0.00 0.00 0.00 65 1008.0
20190322074514 46 101 7.0 0.0 0.00 0.00 0.00 65 1008.0
20190322073210 47 113 7.0 0.0 0.00 0.00 0.00 64 1008.1
20190322071725 46 102 7.0 0.0 0.00 0.00 0.00 65 1008.2
20190322070134 46 126 7.0 0.0 0.00 0.00 0.00 64 1008.1
20190322070056 46 125 7.0 0.0 0.00 0.00 0.00 64 1008.2
20190322064610 46 115 8.0 0.0 0.00 0.00 0.00 64 1008.6
20190322063032 47 115 6.0 0.0 0.00 0.00 0.00 63 1008.7
20190322061517 47 125 6.0 0.0 0.00 0.00 0.00 61 1008.5
20190322060031 47 113 4.0 0.0 0.00 0.00 0.00 63 1008.6
20190322054512 46 163 4.0 0.0 0.00 0.00 0.00 63 1008.7
20190322053018 46 159 3.0 0.0 0.00 0.00 0.00 64 1008.7
20190322050152 46 162 3.0 0.0 0.00 0.00 0.00 65 1008.8
20190322044616 46 151 3.0 0.0 0.00 0.00 0.00 65 1009.0
20190322043138 45 155 3.0 0.0 0.00 0.00 0.00 66 1008.9
20190322041616 46 173 4.0 0.0 0.00 0.00 0.00 65 1008.8
20190322040036 46 148 4.0 0.0 0.00 0.00 0.00 65 1008.7
20190322034517 46 171 4.0 0.0 0.00 0.00 0.00 67 1008.6
20190322033017 46 107 4.0 0.0 0.00 0.00 0.00 68 1008.6
20190322031702 44 108 4.0 0.0 0.00 0.00 0.00 71 1008.6
20190322030224 44 108 3.0 0.0 0.00 0.00 0.00 72 1008.5
20190322024740 44 108 3.0 0.0 0.00 0.00 0.00 72 1008.8
20190322023203 45 107 3.0 0.0 0.00 0.00 0.00 72 1008.7
20190322021608 46 138 3.0 0.0 0.00 0.00 0.00 71 1008.8
20190322020134 46 139 1.0 0.0 0.00 0.00 0.00 71 1008.9
20190322014621 48 139 2.0 0.0 0.00 0.00 0.00 68 1008.9
20190322013047 49 159 2.0 0.0 0.00 0.00 0.00 66 1008.6
20190322011638 52 163 1.0 0.0 0.00 0.00 0.00 61 1008.2
20190322010051 54 210 0.0 0.0 0.00 0.00 0.00 58 1008.1
20190322004552 55 210 0.0 0.0 0.00 0.00 0.00 57 1007.9
20190322003059 55 146 3.0 0.0 0.00 0.00 0.00 59 1008.2
20190322001627 55 163 3.0 0.0 0.00 0.00 0.00 57 1008.1
20190322000106 56 150 3.0 0.0 0.00 0.00 0.00 53 1008.1
20190321234541 57 145 3.0 0.0 0.00 0.00 0.00 49 1008.1
20190321233033 57 150 4.0 0.0 0.00 0.00 0.00 48 1008.3
20190321231527 58 172 4.0 0.0 0.00 0.00 0.00 44 1008.3
20190321224712 57 213 4.0 0.0 0.00 0.00 0.00 43 1008.2
20190321223201 57 171 4.0 0.0 0.00 0.00 0.00 47 1008.3
20190321221617 56 201 4.0 0.0 0.00 0.00 0.00 48 1008.4
20190321220106 56 204 3.0 0.0 0.00 0.00 0.00 48 1008.5
20190321214549 56 167 4.0 0.0 0.00 0.00 0.00 49 1008.6
20190321213009 56 150 4.0 0.0 0.00 0.00 0.00 49 1008.6
20190321210110 55 194 4.0 0.0 0.00 0.00 0.00 50 1009.0
20190321204741 55 192 4.0 0.0 0.00 0.00 0.00 51 1009.1
20190321203131 54 178 5.0 0.0 0.00 0.00 0.00 54 1009.3
20190321201705 53 150 5.0 0.0 0.00 0.00 0.00 55 1009.6
20190321200140 53 146 6.0 0.0 0.00 0.00 0.00 57 1009.9
20190321194648 53 146 4.0 0.0 0.00 0.00 0.00 55 1009.8
20190321193125 52 176 4.0 0.0 0.00 0.00 0.00 54 1009.9
20190321191614 51 130 5.0 0.0 0.00 0.00 0.00 55 1010.4
20190321190042 50 130 5.0 0.0 0.00 0.00 0.00 57 1010.4
20190321184521 50 214 5.0 0.0 0.00 0.00 0.00 58 1010.6
20190321183004 49 155 6.0 0.0 0.00 0.00 0.00 59 1010.6
20190321180130 47 127 6.0 0.0 0.00 0.00 0.00 62 1010.7
20190321174621 47 194 6.0 0.0 0.00 0.00 0.00 63 1010.7
20190321173131 47 202 5.0 0.0 0.00 0.00 0.00 63 1010.8
20190321171649 47 149 4.0 0.0 0.00 0.00 0.00 62 1010.8
20190321170104 47 138 7.0 0.0 0.00 0.00 0.00 61 1010.6
20190321164613 47 146 7.0 0.0 0.00 0.00 0.00 59 1010.5
20190321163103 47 116 7.0 0.0 0.00 0.00 0.00 58 1010.0
20190321161547 48 143 4.0 0.0 0.00 0.00 0.00 55 1010.0
20190321160017 47 119 3.0 0.0 0.00 0.00 0.00 55 1010.2
20190321154512 46 178 2.0 0.0 0.00 0.00 0.00 61 1010.2
20190321153147 45 204 3.0 0.0 0.00 0.00 0.00 63 1010.2
20190321151638 44 146 1.0 0.0 0.00 0.00 0.00 62 1010.3
20190321150229 41 157 1.0 0.0 0.00 0.00 0.00 66 1010.5
20190321144638 38 158 0.0 0.0 0.00 0.00 0.00 67 1010.5
20190321143108 38 157 1.0 0.0 0.00 0.00 0.00 66 1010.5
20190321141631 37 153 2.0 0.0 0.00 0.00 0.00 68 1010.5
20190321140041 36 113 2.0 0.0 0.00 0.00 0.00 69 1010.3
20190321134533 36 140 2.0 0.0 0.00 0.00 0.00 71 1010.1
20190321133002 37 145 2.0 0.0 0.00 0.00 0.00 66 1009.9
20190321130348 36 145 1.0 0.0 0.00 0.00 0.00 69 1010.1
20190321124702 37 145 0.0 0.0 0.00 0.00 0.00 66 1009.8